Time;durP1;ratioP1;P1;durP2;ratioP2;P2;SDS_P1;SDS_P2;PMS_P1;PMS_P2;Temp;Humidity;BMP_temperature;BMP_pressure;BME280_temperature;BME280_humidity;BME280_pressure;Samples;Min_cycle;Max_cycle;Signal;HPM_P1;HPM_P2
2021/12/19 00:00:53;;;;;;;50.57;23.77;;;3.20;99.90;;;;;;4877919;29;20184;-76
2021/12/19 00:03:50;;;;;;;47.57;21.23;;;3.20;99.90;;;;;;4876024;29;20435;-76
2021/12/19 00:09:01;;;;;;;44.27;21.87;;;3.10;99.90;;;;;;4876733;29;20410;-76
2021/12/19 00:11:29;;;;;;;49.03;23.80;;;3.10;99.90;;;;;;4878918;29;20448;-77
2021/12/19 00:13:55;;;;;;;50.43;22.93;;;3.00;99.90;;;;;;4877563;29;20517;-78
2021/12/19 00:16:21;;;;;;;55.03;23.43;;;3.00;99.90;;;;;;4877844;29;21310;-77
2021/12/19 00:18:47;;;;;;;49.33;22.30;;;2.90;99.90;;;;;;4878020;29;20424;-78
2021/12/19 00:21:17;;;;;;;46.77;21.40;;;3.00;99.90;;;;;;4877498;29;20226;-77
2021/12/19 00:23:44;;;;;;;53.80;23.93;;;2.90;99.90;;;;;;4877596;29;20391;-77
2021/12/19 00:26:10;;;;;;;52.50;23.17;;;2.90;99.90;;;;;;4877787;29;20481;-77
2021/12/19 00:28:36;;;;;;;57.47;23.63;;;2.90;99.90;;;;;;4877482;29;20937;-76
2021/12/19 00:31:03;;;;;;;50.83;24.00;;;3.00;99.90;;;;;;4876401;29;20211;-77
2021/12/19 00:33:29;;;;;;;48.60;22.17;;;3.00;99.90;;;;;;4875429;29;20436;-78
2021/12/19 00:35:54;;;;;;;56.67;24.50;;;3.00;99.90;;;;;;4876307;29;20406;-77
2021/12/19 00:38:20;;;;;;;49.80;22.90;;;2.90;99.90;;;;;;4877302;29;20266;-78
2021/12/19 00:40:45;;;;;;;55.77;22.20;;;2.90;99.90;;;;;;4877504;29;20191;-77
2021/12/19 00:43:22;;;;;;;53.30;22.87;;;2.90;99.90;;;;;;4877307;29;20183;-77
2021/12/19 00:45:50;;;;;;;51.10;22.23;;;2.90;99.90;;;;;;4877337;29;20578;-77
2021/12/19 00:48:16;;;;;;;51.23;23.90;;;2.90;99.90;;;;;;4875281;29;21032;-77
2021/12/19 00:50:42;;;;;;;50.73;21.87;;;2.80;99.90;;;;;;4877339;29;20479;-78
2021/12/19 00:53:08;;;;;;;51.00;23.37;;;2.80;99.90;;;;;;4877187;29;20396;-76
2021/12/19 00:55:34;;;;;;;48.43;23.20;;;2.90;99.90;;;;;;4877642;29;20491;-78
2021/12/19 00:58:00;;;;;;;49.90;23.80;;;2.80;99.90;;;;;;4877627;29;20172;-78
2021/12/19 05:32:59;;;;;;;26.33;12.23;;;2.50;99.90;;;;;;4875199;29;20545;-75
2021/12/19 05:46:22;;;;;;;30.83;11.70;;;2.20;99.90;;;;;;4869609;29;20995;-74
2021/12/19 05:48:47;;;;;;;29.23;11.37;;;2.10;99.90;;;;;;4861725;29;20401;-75
2021/12/19 05:51:13;;;;;;;30.87;12.33;;;2.10;99.90;;;;;;4861342;29;20260;-74
2021/12/19 05:53:39;;;;;;;24.30;12.37;;;2.10;99.90;;;;;;4861526;29;20185;-74
2021/12/19 05:56:05;;;;;;;24.93;11.00;;;2.20;99.90;;;;;;4861477;29;20180;-74
2021/12/19 05:58:30;;;;;;;26.07;10.13;;;2.10;99.90;;;;;;4861624;29;20193;-75
2021/12/19 06:00:56;;;;;;;30.63;10.93;;;2.10;99.90;;;;;;4867748;29;20215;-73
2021/12/19 06:03:21;;;;;;;26.50;11.07;;;2.10;99.90;;;;;;4879448;29;20188;-74
2021/12/19 06:05:47;;;;;;;26.20;10.60;;;2.10;99.90;;;;;;4879573;29;20588;-73
2021/12/19 06:08:13;;;;;;;21.57;10.73;;;2.10;99.90;;;;;;4879692;29;20187;-73
2021/12/19 06:10:38;;;;;;;26.37;10.80;;;2.10;99.90;;;;;;4879413;29;20193;-74
2021/12/19 06:13:04;;;;;;;27.07;11.70;;;2.10;99.90;;;;;;4879229;29;20203;-75
2021/12/19 06:15:29;;;;;;;22.63;10.00;;;2.10;99.90;;;;;;4879859;29;20215;-73
2021/12/19 06:17:55;;;;;;;25.37;10.47;;;2.10;99.90;;;;;;4879570;29;20176;-74
2021/12/19 06:20:21;;;;;;;25.53;9.40;;;2.00;99.90;;;;;;4879572;29;20180;-75
2021/12/19 06:22:47;;;;;;;20.67;10.20;;;2.00;99.90;;;;;;4879556;29;20197;-73
2021/12/19 06:25:13;;;;;;;23.63;10.07;;;2.10;99.90;;;;;;4879438;29;20468;-74
2021/12/19 06:27:39;;;;;;;22.33;10.10;;;2.10;99.90;;;;;;4879726;29;20292;-73
2021/12/19 06:30:06;;;;;;;26.57;9.70;;;2.10;99.90;;;;;;4879332;29;20442;-73
2021/12/19 06:32:31;;;;;;;17.97;8.70;;;2.10;99.90;;;;;;4879060;29;20335;-73
2021/12/19 06:34:59;;;;;;;18.30;8.90;;;2.10;99.90;;;;;;4879286;29;20421;-73
2021/12/19 06:37:25;;;;;;;19.57;9.17;;;2.20;99.90;;;;;;4884843;29;20178;-74
2021/12/19 06:39:51;;;;;;;20.90;8.20;;;2.10;99.90;;;;;;4894003;29;20418;-74
2021/12/19 06:42:16;;;;;;;18.37;8.50;;;2.10;99.90;;;;;;4879648;29;20562;-75
2021/12/19 06:44:42;;;;;;;25.83;8.93;;;2.10;99.90;;;;;;4879632;29;20185;-73
2021/12/19 06:47:07;;;;;;;18.93;8.67;;;2.10;99.90;;;;;;4879352;29;20177;-75
2021/12/19 06:49:33;;;;;;;19.83;9.60;;;2.20;99.90;;;;;;4879323;29;20187;-75
2021/12/19 06:51:58;;;;;;;19.00;9.57;;;2.10;99.90;;;;;;4879167;29;20265;-75
2021/12/19 06:54:24;;;;;;;21.50;9.33;;;2.10;99.90;;;;;;4879235;29;20187;-75
2021/12/19 06:56:49;;;;;;;16.30;9.13;;;2.10;99.90;;;;;;4878589;29;20187;-75
2021/12/19 06:59:15;;;;;;;23.10;10.30;;;2.10;99.90;;;;;;4879006;29;20215;-74
2021/12/19 07:01:41;;;;;;;25.47;10.53;;;2.10;99.90;;;;;;4879175;29;20206;-74
2021/12/19 07:04:06;;;;;;;23.60;10.93;;;2.10;99.90;;;;;;4878720;29;20176;-74
2021/12/19 07:06:32;;;;;;;22.03;9.90;;;2.10;99.90;;;;;;4878756;29;20211;-72
2021/12/19 07:08:58;;;;;;;23.80;9.30;;;2.10;99.90;;;;;;4878708;29;20180;-73
2021/12/19 07:11:24;;;;;;;17.37;9.17;;;2.10;99.90;;;;;;4878606;29;20416;-73
2021/12/19 07:13:50;;;;;;;18.57;8.70;;;2.10;99.90;;;;;;4878506;29;20574;-72
2021/12/19 07:16:16;;;;;;;21.30;9.90;;;2.20;99.90;;;;;;4878605;29;20189;-72
2021/12/19 07:18:44;;;;;;;15.90;7.90;;;2.20;99.90;;;;;;4878747;29;20392;-73
2021/12/19 07:21:09;;;;;;;15.47;8.20;;;2.20;99.90;;;;;;4878502;29;20709;-72
2021/12/19 07:23:35;;;;;;;20.10;8.73;;;2.20;99.90;;;;;;4878158;29;20398;-72
2021/12/19 07:26:02;;;;;;;16.07;8.50;;;2.20;99.90;;;;;;4878273;29;20201;-72
2021/12/19 07:28:27;;;;;;;16.13;8.50;;;2.20;99.90;;;;;;4878538;29;20226;-73
2021/12/19 07:30:53;;;;;;;16.70;8.43;;;2.20;99.90;;;;;;4878071;29;20428;-73
2021/12/19 07:33:19;;;;;;;14.37;7.97;;;2.20;99.90;;;;;;4878265;29;20173;-72
2021/12/19 07:35:47;;;;;;;15.63;8.57;;;2.20;99.90;;;;;;4878529;29;20184;-73
2021/12/19 07:38:32;;;;;;;12.50;7.27;;;2.20;99.90;;;;;;4878308;29;20608;-73
2021/12/19 07:40:59;;;;;;;18.43;7.13;;;2.20;99.90;;;;;;4878126;29;20406;-72
2021/12/19 07:43:25;;;;;;;21.63;10.90;;;2.20;99.90;;;;;;4878074;29;20869;-73
2021/12/19 07:45:51;;;;;;;17.43;10.80;;;2.20;99.90;;;;;;4878178;29;20441;-73
2021/12/19 07:48:17;;;;;;;17.33;7.60;;;2.20;99.90;;;;;;4878242;29;20397;-72
2021/12/19 07:50:43;;;;;;;16.13;8.50;;;2.20;99.90;;;;;;4878151;29;20886;-72
2021/12/19 07:53:09;;;;;;;14.37;7.10;;;2.30;99.90;;;;;;4877626;29;20427;-72
2021/12/19 07:55:35;;;;;;;15.77;7.83;;;2.20;99.90;;;;;;4878259;29;20677;-73
2021/12/19 07:58:00;;;;;;;15.10;7.10;;;2.20;99.90;;;;;;4878100;29;20481;-74
2021/12/19 08:00:26;;;;;;;15.53;6.00;;;2.30;99.90;;;;;;4878512;29;20391;-73
2021/12/19 08:02:52;;;;;;;16.40;7.40;;;2.30;99.90;;;;;;4877963;29;20239;-73
2021/12/19 08:05:19;;;;;;;17.70;7.70;;;2.30;99.90;;;;;;4877855;29;20220;-73
2021/12/19 08:07:47;;;;;;;15.20;6.03;;;2.30;99.90;;;;;;4877394;29;20395;-73
2021/12/19 08:11:39;;;;;;;11.90;6.50;;;2.30;99.90;;;;;;4875633;29;20956;-74
2021/12/19 08:13:06;;;;;;;17.60;7.27;;;2.40;99.90;;;;;;4877603;29;20442;-73
2021/12/19 08:15:33;;;;;;;13.87;6.90;;;2.30;99.90;;;;;;4877690;29;20501;-73
2021/12/19 08:17:59;;;;;;;16.07;6.53;;;2.30;99.90;;;;;;4877912;29;20403;-73
2021/12/19 08:20:26;;;;;;;10.90;6.97;;;2.30;99.90;;;;;;4877488;29;20405;-74
2021/12/19 08:22:53;;;;;;;7.87;4.83;;;2.40;99.90;;;;;;4877567;29;20409;-73
2021/12/19 08:25:19;;;;;;;7.87;4.83;;;2.40;99.90;;;;;;4877634;29;20467;-74
2021/12/19 08:27:44;;;;;;;11.17;4.50;;;2.30;99.90;;;;;;4877727;29;20960;-73
2021/12/19 08:30:12;;;;;;;5.03;3.33;;;2.30;99.90;;;;;;4877566;29;20349;-72
2021/12/19 08:32:38;;;;;;;5.20;3.30;;;2.40;99.90;;;;;;4877191;29;20250;-74
2021/12/19 08:35:06;;;;;;;7.03;4.83;;;2.40;99.90;;;;;;4877369;29;20810;-73
2021/12/19 08:37:31;;;;;;;8.60;4.10;;;2.30;99.90;;;;;;4877484;29;20399;-73
2021/12/19 08:39:57;;;;;;;5.33;3.23;;;2.40;99.90;;;;;;4877378;29;20416;-74
2021/12/19 08:42:23;;;;;;;10.27;4.90;;;2.40;99.90;;;;;;4877743;29;20227;-74
2021/12/19 08:44:49;;;;;;;9.50;5.53;;;2.50;99.90;;;;;;4877160;29;20193;-75
2021/12/19 08:47:15;;;;;;;8.10;4.60;;;2.60;99.90;;;;;;4877636;29;20179;-74
2021/12/19 08:49:41;;;;;;;9.63;4.70;;;2.50;99.90;;;;;;4877347;29;20189;-74
2021/12/19 08:52:08;;;;;;;5.00;3.93;;;2.50;99.90;;;;;;4877482;29;20794;-74
2021/12/19 08:54:34;;;;;;;5.90;3.60;;;2.60;99.90;;;;;;4875958;29;20774;-75
2021/12/19 08:57:00;;;;;;;5.80;3.40;;;2.60;99.90;;;;;;4877487;29;20395;-74
2021/12/19 08:59:27;;;;;;;7.00;4.27;;;2.70;99.90;;;;;;4877211;29;20390;-75
2021/12/19 09:01:54;;;;;;;8.57;5.00;;;2.70;99.90;;;;;;4877369;29;20212;-75
2021/12/19 09:04:19;;;;;;;8.20;5.23;;;2.70;99.90;;;;;;4877037;29;20404;-74
2021/12/19 09:06:45;;;;;;;8.73;5.63;;;2.80;99.90;;;;;;4877220;29;20442;-75
2021/12/19 09:09:11;;;;;;;5.30;4.10;;;2.80;99.90;;;;;;4877179;29;20224;-75
2021/12/19 09:11:37;;;;;;;4.13;2.50;;;2.80;99.90;;;;;;4877197;29;20196;-74
2021/12/19 09:14:03;;;;;;;5.17;3.23;;;2.90;99.90;;;;;;4877314;29;20879;-75
2021/12/19 09:16:29;;;;;;;3.83;3.20;;;2.90;99.90;;;;;;4877391;29;20402;-74
2021/12/19 09:18:55;;;;;;;4.53;3.73;;;2.90;99.90;;;;;;4877569;29;20484;-75
2021/12/19 09:21:20;;;;;;;7.03;6.33;;;3.00;99.90;;;;;;4880419;29;20450;-75
2021/12/19 09:23:46;;;;;;;4.97;3.00;;;3.00;99.90;;;;;;4880335;29;20191;-75
2021/12/19 09:26:12;;;;;;;6.13;3.73;;;3.00;99.90;;;;;;4880689;29;20232;-75
2021/12/19 09:28:38;;;;;;;6.40;3.70;;;3.00;99.90;;;;;;4880618;29;20172;-74
2021/12/19 09:31:04;;;;;;;5.40;3.70;;;3.00;99.90;;;;;;4880402;29;20594;-75
2021/12/19 09:33:30;;;;;;;4.93;3.53;;;3.00;99.90;;;;;;4880396;29;20316;-73
2021/12/19 09:35:57;;;;;;;6.47;4.27;;;3.00;99.90;;;;;;4880758;29;20589;-74
2021/12/19 09:38:23;;;;;;;4.47;2.87;;;3.00;99.90;;;;;;4880567;29;20263;-74
2021/12/19 09:40:49;;;;;;;7.57;3.90;;;3.00;99.90;;;;;;4880315;29;20474;-74
2021/12/19 09:46:00;;;;;;;4.13;3.47;;;2.90;99.90;;;;;;4880595;29;20534;-74
2021/12/19 09:48:26;;;;;;;8.10;5.33;;;3.00;99.90;;;;;;4880204;29;20472;-72
2021/12/19 09:50:53;;;;;;;5.47;3.83;;;3.00;99.90;;;;;;4880078;29;20909;-74
2021/12/19 09:53:19;;;;;;;5.50;3.47;;;3.10;99.90;;;;;;4879888;29;20395;-74
2021/12/19 09:55:45;;;;;;;5.03;3.33;;;3.00;99.90;;;;;;4878799;29;20413;-74
2021/12/19 09:58:10;;;;;;;4.90;3.00;;;3.10;99.90;;;;;;4880132;29;20616;-74
2021/12/19 10:00:36;;;;;;;1.93;1.83;;;3.20;99.90;;;;;;4879671;29;20183;-74
2021/12/19 10:03:02;;;;;;;13.93;2.43;;;3.20;99.90;;;;;;4879770;29;20307;-74
2021/12/19 10:05:28;;;;;;;6.17;3.60;;;3.20;99.90;;;;;;4879805;29;20471;-74
2021/12/19 10:07:56;;;;;;;3.80;2.70;;;3.20;99.90;;;;;;4879831;29;20188;-73
2021/12/19 10:10:52;;;;;;;6.00;3.70;;;3.20;99.90;;;;;;4880045;29;20530;-74
2021/12/19 10:13:31;;;;;;;3.40;2.77;;;3.10;99.90;;;;;;4879615;29;20443;-74
2021/12/19 10:15:56;;;;;;;3.67;2.40;;;3.10;99.90;;;;;;4879926;29;20429;-75
2021/12/19 10:18:22;;;;;;;4.47;3.17;;;3.20;99.90;;;;;;4880173;29;20407;-76
2021/12/19 10:20:52;;;;;;;3.10;2.77;;;3.20;99.90;;;;;;4879554;29;20272;-74
2021/12/19 10:23:21;;;;;;;5.30;2.33;;;3.30;99.90;;;;;;4879460;29;20191;-76
2021/12/19 10:26:16;;;;;;;4.20;2.80;;;3.30;99.90;;;;;;4879509;29;20456;-74
2021/12/19 10:28:56;;;;;;;9.50;4.07;;;3.30;99.90;;;;;;4888065;29;20428;-75
2021/12/19 10:31:25;;;;;;;2.83;2.33;;;3.30;99.90;;;;;;4896751;29;20484;-75
2021/12/19 10:33:51;;;;;;;5.70;3.47;;;3.40;99.90;;;;;;4897732;29;20423;-75
2021/12/19 10:36:18;;;;;;;4.13;3.67;;;3.40;99.90;;;;;;4897937;29;20401;-75
2021/12/19 10:38:52;;;;;;;5.53;3.40;;;3.40;99.90;;;;;;4885747;29;20440;-76
2021/12/19 10:41:22;;;;;;;2.67;2.37;;;3.40;99.90;;;;;;4877620;29;20429;-75
2021/12/19 10:44:00;;;;;;;4.47;3.07;;;3.30;99.90;;;;;;4878944;29;20901;-75
2021/12/19 10:46:30;;;;;;;3.57;3.20;;;3.40;99.90;;;;;;4877911;29;21057;-75
2021/12/19 10:48:57;;;;;;;6.10;2.83;;;3.40;99.90;;;;;;4879173;29;20431;-74
2021/12/19 10:51:24;;;;;;;3.57;3.10;;;3.40;99.90;;;;;;4879201;29;20422;-78
2021/12/19 10:53:53;;;;;;;5.13;3.43;;;3.50;99.90;;;;;;4878682;29;20463;-74
2021/12/19 10:56:24;;;;;;;4.37;3.10;;;3.50;99.90;;;;;;4879266;29;20511;-74
2021/12/19 10:58:54;;;;;;;5.57;2.97;;;3.40;99.90;;;;;;4878673;29;20425;-77
2021/12/19 11:01:22;;;;;;;3.40;2.70;;;3.40;99.90;;;;;;4878696;29;20878;-75
2021/12/19 11:03:55;;;;;;;2.90;2.60;;;3.40;99.90;;;;;;4878313;29;20438;-74
2021/12/19 11:06:20;;;;;;;2.33;2.10;;;3.30;99.90;;;;;;4878608;29;20476;-75
2021/12/19 11:08:46;;;;;;;2.73;2.07;;;3.40;99.90;;;;;;4877185;29;20401;-74
2021/12/19 11:11:28;;;;;;;4.00;2.57;;;3.40;99.90;;;;;;4878452;29;20197;-74
2021/12/19 11:13:55;;;;;;;2.50;2.10;;;3.40;99.90;;;;;;4878447;29;20410;-73
2021/12/19 11:16:21;;;;;;;4.00;2.83;;;3.40;99.90;;;;;;4878762;29;20432;-74
2021/12/19 11:18:48;;;;;;;6.50;3.10;;;3.50;99.90;;;;;;4878542;29;20457;-73
2021/12/19 11:21:14;;;;;;;3.23;2.20;;;3.50;99.90;;;;;;4878317;29;20447;-75
2021/12/19 11:23:40;;;;;;;5.07;3.07;;;3.40;99.90;;;;;;4878228;29;20436;-74
2021/12/19 11:26:05;;;;;;;4.83;2.80;;;3.40;99.90;;;;;;4878554;29;20804;-75
2021/12/19 11:28:31;;;;;;;5.30;2.60;;;3.30;99.90;;;;;;4878406;29;20185;-74
2021/12/19 11:30:58;;;;;;;6.07;3.57;;;3.20;99.90;;;;;;4878194;29;20918;-74
2021/12/19 11:33:56;;;;;;;5.67;3.20;;;3.20;99.90;;;;;;4878123;29;20481;-74
2021/12/19 11:36:22;;;;;;;3.53;2.97;;;3.30;99.90;;;;;;4859837;29;20408;-76
2021/12/19 11:38:48;;;;;;;5.60;2.90;;;3.30;99.90;;;;;;4878126;29;20425;-74
2021/12/19 11:41:14;;;;;;;7.50;3.80;;;3.30;99.90;;;;;;4878050;29;20446;-73
2021/12/19 11:43:40;;;;;;;4.10;3.33;;;3.30;99.90;;;;;;4877638;29;20227;-74
2021/12/19 11:46:16;;;;;;;5.20;3.27;;;3.40;99.90;;;;;;4878294;29;20232;-73
2021/12/19 11:48:41;;;;;;;4.93;4.07;;;3.50;99.90;;;;;;4878019;29;20753;-75
2021/12/19 11:51:17;;;;;;;3.90;3.33;;;3.50;99.90;;;;;;4877937;29;20422;-74
2021/12/19 11:53:43;;;;;;;6.03;4.20;;;3.50;99.90;;;;;;4877489;29;20271;-74
2021/12/19 11:56:16;;;;;;;5.20;3.63;;;3.50;99.90;;;;;;4878170;29;20533;-74
2021/12/19 11:58:55;;;;;;;4.50;2.80;;;3.40;99.90;;;;;;4877624;29;20407;-74
2021/12/19 12:01:23;;;;;;;4.10;3.40;;;3.40;99.90;;;;;;4877747;29;20504;-75
2021/12/19 12:03:58;;;;;;;4.70;3.17;;;3.30;99.90;;;;;;4877738;29;20807;-74
2021/12/19 12:06:35;;;;;;;4.77;3.93;;;3.40;99.90;;;;;;4877935;29;20476;-75
2021/12/19 12:09:13;;;;;;;6.77;4.30;;;3.30;99.90;;;;;;4877949;29;20383;-75
2021/12/19 12:12:03;;;;;;;6.30;3.30;;;3.30;99.90;;;;;;4877690;29;20444;-74
2021/12/19 12:14:33;;;;;;;6.37;4.23;;;3.40;99.90;;;;;;4877650;29;20773;-74
2021/12/19 12:17:04;;;;;;;5.23;3.63;;;3.40;99.90;;;;;;4877845;29;20524;-75
2021/12/19 12:19:49;;;;;;;5.00;3.87;;;3.40;99.90;;;;;;4877674;29;20561;-73
2021/12/19 12:25:18;;;;;;;6.00;3.87;;;3.30;99.90;;;;;;4860636;29;20429;-76
2021/12/19 12:27:54;;;;;;;7.37;4.27;;;3.30;99.90;;;;;;4858920;29;20430;-77
2021/12/19 12:30:25;;;;;;;6.90;4.40;;;3.40;99.90;;;;;;4858980;29;20830;-75
2021/12/19 12:32:52;;;;;;;5.17;4.00;;;3.30;99.90;;;;;;4858905;29;20428;-74
2021/12/19 12:35:19;;;;;;;7.47;4.67;;;3.30;99.90;;;;;;4858982;29;20429;-75
2021/12/19 12:37:47;;;;;;;6.23;4.33;;;3.30;99.90;;;;;;4858922;29;20914;-75
2021/12/19 12:40:29;;;;;;;9.57;5.20;;;3.40;99.90;;;;;;4858984;29;20417;-75
2021/12/19 12:43:09;;;;;;;5.80;3.97;;;3.40;99.90;;;;;;4857589;29;20432;-76
2021/12/19 12:45:51;;;;;;;8.00;3.50;;;3.40;99.90;;;;;;4868635;29;20507;-75
2021/12/19 12:48:36;;;;;;;5.20;3.80;;;3.50;99.90;;;;;;4872847;29;20395;-75
2021/12/19 12:51:05;;;;;;;6.50;4.50;;;3.60;99.90;;;;;;4877464;29;20458;-75
2021/12/19 12:53:34;;;;;;;5.13;4.10;;;3.60;99.90;;;;;;4875639;29;20856;-75
2021/12/19 12:56:04;;;;;;;3.80;3.50;;;3.70;99.90;;;;;;4880329;29;20412;-75
2021/12/19 12:58:35;;;;;;;7.27;4.60;;;3.70;99.90;;;;;;4881070;29;20420;-75
2021/12/19 13:01:23;;;;;;;8.43;5.30;;;3.60;99.90;;;;;;4880931;29;20418;-74
2021/12/19 13:04:00;;;;;;;6.03;4.70;;;3.70;99.90;;;;;;4880741;29;20431;-75
2021/12/19 13:07:03;;;;;;;6.67;4.80;;;3.60;99.90;;;;;;4880747;29;20438;-74
2021/12/19 13:09:37;;;;;;;4.93;3.70;;;3.60;99.90;;;;;;4841166;29;20572;-75
2021/12/19 13:12:16;;;;;;;5.93;4.07;;;3.60;99.90;;;;;;4875180;29;20418;-74
2021/12/19 13:15:02;;;;;;;5.60;4.83;;;3.50;99.90;;;;;;4880385;29;20396;-74
2021/12/19 13:17:36;;;;;;;11.83;5.70;;;3.50;99.90;;;;;;4880580;29;21129;-74
2021/12/19 13:20:24;;;;;;;8.60;6.40;;;3.50;99.90;;;;;;4861662;29;20421;-74
2021/12/19 13:22:55;;;;;;;9.17;6.40;;;3.50;99.90;;;;;;4861588;29;20416;-72
2021/12/19 13:25:28;;;;;;;11.17;7.03;;;3.50;99.90;;;;;;4861835;29;20437;-75
2021/12/19 13:27:57;;;;;;;8.70;6.00;;;3.50;99.90;;;;;;4861740;29;20400;-73
2021/12/19 13:30:31;;;;;;;8.90;6.10;;;3.50;99.90;;;;;;4861926;29;20788;-74
2021/12/19 13:33:14;;;;;;;9.17;6.30;;;3.50;99.90;;;;;;4860295;29;20436;-75
2021/12/19 13:35:47;;;;;;;8.30;6.20;;;3.50;99.90;;;;;;4861580;29;20418;-74
2021/12/19 13:38:16;;;;;;;8.03;5.77;;;3.50;99.90;;;;;;4861575;29;20446;-75
2021/12/19 13:40:42;;;;;;;9.80;6.20;;;3.50;99.90;;;;;;4861195;29;20534;-74
2021/12/19 13:43:11;;;;;;;7.20;5.57;;;3.50;99.90;;;;;;4861490;29;20962;-75
2021/12/19 13:45:43;;;;;;;6.63;4.73;;;3.50;99.90;;;;;;4860132;29;20266;-75
2021/12/19 13:48:26;;;;;;;9.20;6.40;;;3.50;99.90;;;;;;4861756;29;20422;-75
2021/12/19 13:50:57;;;;;;;9.53;5.83;;;3.40;99.90;;;;;;4861346;29;20447;-76
2021/12/19 13:53:24;;;;;;;9.37;6.50;;;3.50;99.90;;;;;;4861444;29;20392;-75
2021/12/19 13:55:57;;;;;;;13.00;7.03;;;3.50;99.90;;;;;;4861547;29;20393;-75
2021/12/19 13:58:28;;;;;;;9.33;6.00;;;3.40;99.90;;;;;;4866386;29;20433;-75
2021/12/19 14:00:56;;;;;;;8.97;6.57;;;3.40;99.90;;;;;;4878451;29;20821;-75
2021/12/19 14:03:51;;;;;;;8.73;6.03;;;3.50;99.90;;;;;;4877769;29;20421;-76
2021/12/19 14:06:32;;;;;;;10.97;7.53;;;3.40;99.90;;;;;;4879968;29;20525;-78
2021/12/19 14:09:00;;;;;;;12.60;7.77;;;3.40;99.90;;;;;;4878597;29;20938;-76
2021/12/19 14:11:28;;;;;;;9.30;7.00;;;3.40;99.90;;;;;;4879126;29;20948;-78
2021/12/19 14:14:04;;;;;;;7.83;6.00;;;3.40;99.90;;;;;;4879676;29;20952;-76
2021/12/19 14:16:36;;;;;;;10.57;7.83;;;3.40;99.90;;;;;;4878174;29;20512;-77
2021/12/19 14:19:15;;;;;;;10.97;7.17;;;3.40;99.90;;;;;;4877981;29;20460;-74
2021/12/19 14:21:41;;;;;;;8.00;5.73;;;3.40;99.90;;;;;;4879192;29;20418;-75
2021/12/19 14:24:07;;;;;;;8.23;5.90;;;3.30;99.90;;;;;;4878014;29;20480;-75
2021/12/19 14:26:33;;;;;;;10.70;6.40;;;3.20;99.90;;;;;;4878627;29;20474;-76
2021/12/19 14:28:59;;;;;;;11.13;6.70;;;3.20;99.90;;;;;;4878536;29;20432;-76
2021/12/19 14:31:24;;;;;;;10.23;6.23;;;3.20;99.90;;;;;;4879256;29;20252;-76
2021/12/19 14:33:50;;;;;;;11.63;7.00;;;3.10;99.90;;;;;;4878881;29;20235;-76
2021/12/19 14:36:27;;;;;;;8.10;6.60;;;3.10;99.90;;;;;;4879635;29;20182;-76
2021/12/19 14:39:03;;;;;;;8.77;6.00;;;3.10;99.90;;;;;;4879354;29;20207;-76
2021/12/19 14:41:30;;;;;;;10.70;6.73;;;3.10;99.90;;;;;;4879119;29;20432;-75
2021/12/19 14:43:55;;;;;;;12.83;6.60;;;3.00;99.90;;;;;;4879278;29;21109;-76
2021/12/19 14:46:27;;;;;;;11.10;6.70;;;3.00;99.90;;;;;;4879061;29;20457;-76
2021/12/19 14:49:07;;;;;;;9.10;6.90;;;3.00;99.90;;;;;;4880696;29;20234;-76
2021/12/19 14:51:33;;;;;;;11.07;7.43;;;3.00;99.90;;;;;;4880748;29;20466;-76
2021/12/19 14:54:00;;;;;;;12.87;7.67;;;3.00;99.90;;;;;;4878563;29;20417;-76
2021/12/19 14:56:28;;;;;;;10.93;7.03;;;3.00;99.90;;;;;;4878852;29;20179;-75
2021/12/19 14:58:56;;;;;;;7.20;4.93;;;3.00;99.90;;;;;;4878945;29;20418;-75
2021/12/19 15:01:27;;;;;;;7.50;5.73;;;3.10;99.90;;;;;;4878956;29;20533;-77
2021/12/19 15:04:05;;;;;;;14.30;9.30;;;3.10;99.90;;;;;;4878474;29;20589;-76
2021/12/19 15:06:37;;;;;;;11.50;7.50;;;3.10;99.90;;;;;;4878696;29;20462;-76
2021/12/19 15:09:06;;;;;;;11.30;6.63;;;3.00;99.90;;;;;;4878600;29;20420;-75
2021/12/19 15:11:32;;;;;;;11.83;7.43;;;3.00;99.90;;;;;;4878454;29;20496;-76
2021/12/19 15:13:57;;;;;;;8.53;6.70;;;3.00;99.90;;;;;;4878350;29;20453;-76
2021/12/19 15:16:23;;;;;;;9.70;6.80;;;3.00;99.90;;;;;;4878425;29;20804;-76
2021/12/19 15:18:48;;;;;;;18.23;10.90;;;2.90;99.90;;;;;;4878341;29;20188;-75
2021/12/19 15:21:15;;;;;;;15.33;10.17;;;2.90;99.90;;;;;;4875646;29;20211;-75
2021/12/19 15:23:42;;;;;;;15.73;9.63;;;2.90;99.90;;;;;;4876827;29;20733;-74
2021/12/19 15:26:15;;;;;;;12.60;8.43;;;2.90;99.90;;;;;;4877077;29;20538;-74
2021/12/19 15:28:44;;;;;;;13.20;8.23;;;2.90;99.90;;;;;;4878189;29;20440;-75
2021/12/19 15:31:09;;;;;;;14.90;9.03;;;2.90;99.90;;;;;;4874130;29;20532;-75
2021/12/19 15:33:35;;;;;;;15.30;9.60;;;2.90;99.90;;;;;;4876897;29;20533;-76
2021/12/19 15:36:02;;;;;;;12.60;8.90;;;2.80;99.90;;;;;;4877570;29;20191;-76
2021/12/19 15:38:28;;;;;;;12.50;8.57;;;2.90;99.90;;;;;;4877659;29;20195;-76
2021/12/19 15:40:53;;;;;;;14.07;8.90;;;2.80;99.90;;;;;;4877824;29;20451;-76
2021/12/19 15:43:19;;;;;;;15.10;8.60;;;2.90;99.90;;;;;;4878987;29;20891;-77
2021/12/19 15:45:44;;;;;;;10.70;6.67;;;2.90;99.90;;;;;;4877060;29;20684;-77
2021/12/19 15:48:10;;;;;;;10.40;7.20;;;2.80;99.90;;;;;;4876587;29;20179;-76
2021/12/19 15:50:36;;;;;;;12.03;8.23;;;2.80;99.90;;;;;;4874399;29;20184;-78
2021/12/19 15:53:03;;;;;;;15.03;8.50;;;2.80;99.90;;;;;;4875480;29;20627;-78
2021/12/19 15:55:29;;;;;;;26.60;15.27;;;2.80;99.90;;;;;;4876482;29;20871;-76
2021/12/19 15:57:55;;;;;;;18.93;11.17;;;2.80;99.90;;;;;;4877583;29;20428;-76
2021/12/19 16:00:23;;;;;;;12.97;8.60;;;2.80;99.90;;;;;;4867912;29;20585;-76
2021/12/19 16:02:50;;;;;;;16.33;8.70;;;2.70;99.90;;;;;;4875646;29;20697;-76
2021/12/19 16:05:17;;;;;;;21.50;10.33;;;2.70;99.90;;;;;;4876556;29;20428;-77
2021/12/19 16:07:43;;;;;;;19.40;9.73;;;2.70;99.90;;;;;;4876429;29;21091;-77
2021/12/19 16:10:10;;;;;;;15.40;9.30;;;2.60;99.90;;;;;;4872988;29;20420;-78
2021/12/19 16:12:36;;;;;;;18.60;11.30;;;2.60;99.90;;;;;;4878331;29;20687;-77
2021/12/19 16:15:04;;;;;;;21.70;11.60;;;2.60;99.90;;;;;;4876554;29;20440;-77
2021/12/19 16:17:29;;;;;;;14.50;8.63;;;2.60;99.90;;;;;;4876927;29;20261;-76
2021/12/19 16:19:55;;;;;;;16.17;10.03;;;2.60;99.90;;;;;;4879603;29;20465;-79
2021/12/19 16:22:21;;;;;;;20.40;10.20;;;2.50;99.90;;;;;;4878599;29;20218;-79
2021/12/19 16:24:47;;;;;;;17.93;9.50;;;2.50;99.90;;;;;;4879780;29;20183;-80
2021/12/19 16:27:13;;;;;;;17.10;9.17;;;2.50;99.90;;;;;;4879540;29;20471;-79
2021/12/19 16:29:38;;;;;;;13.93;9.67;;;2.50;99.90;;;;;;4878171;29;20411;-79
2021/12/19 16:32:05;;;;;;;19.10;10.97;;;2.60;99.90;;;;;;4882284;29;20215;-80
2021/12/19 16:34:30;;;;;;;19.27;11.93;;;2.50;99.90;;;;;;4881752;29;20188;-80
2021/12/19 16:36:57;;;;;;;21.20;11.30;;;2.50;99.90;;;;;;4882001;29;20485;-82
2021/12/19 16:39:24;;;;;;;20.27;10.27;;;2.50;99.90;;;;;;4880811;29;20550;-78
2021/12/19 16:42:03;;;;;;;19.37;10.83;;;2.50;99.90;;;;;;4881132;29;20503;-78
2021/12/19 16:44:32;;;;;;;24.23;11.33;;;2.60;99.90;;;;;;4881150;29;20427;-79
2021/12/19 16:47:00;;;;;;;23.17;9.97;;;2.50;99.90;;;;;;4881528;29;20434;-79
2021/12/19 16:49:26;;;;;;;13.80;8.97;;;2.40;99.90;;;;;;4881294;29;20400;-80
2021/12/19 16:51:52;;;;;;;17.87;10.00;;;2.40;99.90;;;;;;4880940;29;20451;-80
2021/12/19 16:54:18;;;;;;;25.27;10.43;;;2.50;99.90;;;;;;4880956;29;20397;-79
2021/12/19 16:56:44;;;;;;;23.33;10.50;;;2.50;99.90;;;;;;4881182;29;20589;-79
2021/12/19 16:59:10;;;;;;;24.07;11.60;;;2.40;99.90;;;;;;4881015;29;20199;-80
2021/12/19 17:01:40;;;;;;;18.47;10.90;;;2.40;99.90;;;;;;4880740;29;20824;-79
2021/12/19 17:04:06;;;;;;;21.07;11.77;;;2.40;99.90;;;;;;4879851;29;20968;-77
2021/12/19 17:06:32;;;;;;;15.73;9.40;;;2.50;99.90;;;;;;4880568;29;20523;-79
2021/12/19 17:08:58;;;;;;;21.63;11.20;;;2.50;99.90;;;;;;4880386;29;20440;-80
2021/12/19 17:11:26;;;;;;;21.27;11.67;;;2.50;99.90;;;;;;4880588;29;20211;-79
2021/12/19 17:14:11;;;;;;;27.50;11.40;;;2.50;99.90;;;;;;4880188;29;20224;-78
2021/12/19 17:16:39;;;;;;;21.90;11.90;;;2.50;99.90;;;;;;4880837;29;20473;-78
2021/12/19 17:19:07;;;;;;;18.37;10.90;;;2.50;99.90;;;;;;4880824;29;20419;-79
2021/12/19 17:21:34;;;;;;;21.30;12.53;;;2.40;99.90;;;;;;4880225;29;21032;-78
2021/12/19 17:24:00;;;;;;;18.70;10.83;;;2.40;99.90;;;;;;4880187;29;20435;-78
2021/12/19 17:26:26;;;;;;;26.43;12.57;;;2.40;99.90;;;;;;4879921;29;20468;-78
2021/12/19 17:28:51;;;;;;;28.87;13.43;;;2.40;99.90;;;;;;4881683;29;20446;-78
2021/12/19 17:31:18;;;;;;;22.37;12.03;;;2.50;99.90;;;;;;4880360;29;20348;-77
2021/12/19 17:33:45;;;;;;;23.93;10.97;;;2.50;99.90;;;;;;4878480;29;20195;-78
2021/12/19 17:36:13;;;;;;;23.20;11.33;;;2.50;99.90;;;;;;4880346;29;20428;-75
2021/12/19 17:38:40;;;;;;;28.13;12.90;;;2.50;99.90;;;;;;4879339;29;20856;-77
2021/12/19 17:41:07;;;;;;;24.50;11.30;;;2.50;99.90;;;;;;4880202;29;20452;-76
2021/12/19 17:43:33;;;;;;;20.83;11.50;;;2.50;99.90;;;;;;4880056;29;20838;-76
2021/12/19 17:45:59;;;;;;;24.70;11.33;;;2.50;99.90;;;;;;4880335;29;20442;-78
2021/12/19 17:48:26;;;;;;;24.37;12.70;;;2.50;99.90;;;;;;4880281;29;20940;-77